createdAt,value
2019-03-29T00:07:00.962Z,49.83
2019-03-29T00:17:05.957Z,51.43
2019-03-29T00:27:10.936Z,35.63
2019-03-29T00:37:15.926Z,37.67
2019-03-29T00:47:20.934Z,34.38
2019-03-29T00:57:26.025Z,35.37
2019-03-29T01:07:31.165Z,34.53
2019-03-29T01:17:36.725Z,36.97
2019-03-29T01:27:41.713Z,40.53
2019-03-29T01:37:46.704Z,45.83
2019-03-29T01:47:52.626Z,45.47
2019-03-29T01:57:58.947Z,41.63
2019-03-29T02:08:04.885Z,46.02
2019-03-29T02:18:10.070Z,45.33
2019-03-29T02:28:15.055Z,36.65
2019-03-29T02:38:20.057Z,36.43
2019-03-29T02:48:25.052Z,34.67
2019-03-29T02:58:30.018Z,31.03
2019-03-29T03:08:35.027Z,35.50
2019-03-29T03:18:40.030Z,36.43
2019-03-29T03:28:45.058Z,39.37
2019-03-29T03:38:50.484Z,40.50
2019-03-29T03:48:55.527Z,41.53
2019-03-29T03:59:01.009Z,39.57
2019-03-29T04:09:06.833Z,37.67
2019-03-29T04:19:11.929Z,36.17
2019-03-29T04:29:16.937Z,34.23
2019-03-29T04:39:22.018Z,42.23
2019-03-29T04:49:26.999Z,35.07
2019-03-29T04:59:32.006Z,31.20
2019-03-29T05:09:36.997Z,36.75
2019-03-29T05:19:44.560Z,34.73
2019-03-29T05:29:48.616Z,39.77
2019-03-29T05:39:53.737Z,40.87
2019-03-29T05:49:58.716Z,37.37
2019-03-29T06:00:05.222Z,39.70
2019-03-29T06:10:10.342Z,40.75
2019-03-29T06:20:16.084Z,45.15
2019-03-29T06:30:29.131Z,40.15
2019-03-29T06:40:35.262Z,41.63
2019-03-29T06:50:40.348Z,45.37
2019-03-29T07:00:46.876Z,40.67
2019-03-29T07:10:51.874Z,44.90
2019-03-29T07:20:56.877Z,39.33
2019-03-29T07:31:02.157Z,64.20
2019-03-29T07:41:08.226Z,36.77
2019-03-29T07:51:14.193Z,38.53
2019-03-29T08:01:20.748Z,43.40
2019-03-29T08:11:26.736Z,38.50
2019-03-29T08:21:32.652Z,36.00
2019-03-29T08:31:37.668Z,36.27
2019-03-29T08:41:42.872Z,27.80
2019-03-29T08:51:48.052Z,24.17
2019-03-29T09:01:53.456Z,27.27
2019-03-29T09:11:58.458Z,19.02
2019-03-29T09:22:03.661Z,14.18
2019-03-29T09:32:08.646Z,16.80
2019-03-29T09:42:27.752Z,14.25
2019-03-29T09:52:20.473Z,11.40
2019-03-29T10:02:25.671Z,11.90
2019-03-29T10:12:42.735Z,11.50
2019-03-29T10:22:37.481Z,11.30
2019-03-29T10:32:42.491Z,10.08
2019-03-29T10:42:57.509Z,12.55
2019-03-29T10:52:54.657Z,15.97
2019-03-29T11:02:59.716Z,11.97
2019-03-29T11:13:13.000Z,9.50
2019-03-29T11:23:14.117Z,10.60
2019-03-29T11:33:19.112Z,9.50
2019-03-29T11:43:27.084Z,10.25
2019-03-29T11:53:31.137Z,14.35
2019-03-29T12:03:36.137Z,12.47
2019-03-29T12:13:41.690Z,11.85
2019-03-29T12:23:46.742Z,13.95
2019-03-29T12:33:51.737Z,14.28
2019-03-29T12:43:56.865Z,16.47
2019-03-29T12:54:01.815Z,30.00
2019-03-29T13:04:09.585Z,19.07
2019-03-29T13:14:13.550Z,12.97
2019-03-29T13:24:18.664Z,15.18
2019-03-29T13:34:23.726Z,19.32
2019-03-29T13:44:28.831Z,16.77
2019-03-29T13:54:33.917Z,17.77
2019-03-29T14:04:39.017Z,15.77
2019-03-29T14:14:44.106Z,13.00
2019-03-29T14:24:49.057Z,13.20
2019-03-29T14:34:54.217Z,13.73
2019-03-29T14:44:59.391Z,10.53
2019-03-29T14:55:06.486Z,12.57
2019-03-29T15:05:11.434Z,12.50
2019-03-29T15:15:16.530Z,14.60
2019-03-29T15:25:21.519Z,14.47
2019-03-29T15:35:26.511Z,13.87
2019-03-29T15:45:31.517Z,15.37
2019-03-29T15:55:36.489Z,15.80
2019-03-29T16:05:41.498Z,18.23
2019-03-29T16:15:46.484Z,18.03
2019-03-29T16:25:51.478Z,23.47
2019-03-29T16:36:10.349Z,21.93
2019-03-29T16:46:18.071Z,19.97
2019-03-29T16:56:23.148Z,18.67
2019-03-29T17:06:29.089Z,19.93
2019-03-29T17:16:35.096Z,23.37
2019-03-29T17:26:40.402Z,22.30
2019-03-29T17:36:45.533Z,21.33
2019-03-29T17:46:50.707Z,19.37
2019-03-29T17:56:55.832Z,19.13
2019-03-29T18:07:00.912Z,17.07
2019-03-29T18:17:06.169Z,15.40
2019-03-29T18:27:11.575Z,14.85
2019-03-29T18:37:17.850Z,16.57
2019-03-29T18:47:23.038Z,24.47
2019-03-29T18:57:28.287Z,14.70
2019-03-29T19:07:34.537Z,24.63
2019-03-29T19:17:39.879Z,27.57
2019-03-29T19:27:45.208Z,28.35
2019-03-29T19:37:50.539Z,28.27
2019-03-29T19:47:55.922Z,28.67
2019-03-29T19:58:01.235Z,34.47
2019-03-29T20:08:06.392Z,33.87
2019-03-29T20:18:11.565Z,52.62
2019-03-29T20:28:16.805Z,46.63
2019-03-29T20:38:22.083Z,45.00
2019-03-29T20:48:27.378Z,33.17
2019-03-29T20:58:32.635Z,45.57
2019-03-29T21:08:37.759Z,39.60
2019-03-29T21:18:42.947Z,35.00
2019-03-29T21:28:48.052Z,62.70
2019-03-29T21:38:53.212Z,48.23
2019-03-29T21:48:59.225Z,56.30
2019-03-29T21:59:05.243Z,54.83
2019-03-29T22:09:10.306Z,47.20
2019-03-29T22:19:15.230Z,49.75
2019-03-29T22:29:21.849Z,42.60
2019-03-29T22:39:27.933Z,34.03
2019-03-29T22:49:32.880Z,34.17
2019-03-29T22:59:37.884Z,34.30
2019-03-29T23:09:42.876Z,31.03
2019-03-29T23:19:47.860Z,25.70
2019-03-29T23:29:52.750Z,26.47
2019-03-29T23:39:57.749Z,26.50
2019-03-29T23:50:02.838Z,24.67
